Latest Weather Observations for Viewbank

IDV60801

Issued at 8:02 am EST Saturday 29 August 2015 (issued every 30 minutes, with the page automatically refreshed every 10 minutes)

About weather observations | Map of weather stations | Latest weather observations for VIC | Other Formats
Station Details ID: 086068 Name: VIEWBANK Lat: -37.74 Lon: 145.10 Height: 66.1 m
Data from the previous 72 hours. | See also: Recent months at Viewbank
Date/Time
EST
Temp
°C
App
Temp
°C
Dew
Point
Rel
Hum
%
Delta-T
°C
Wind Press
QNH
hPa
Press
MSL
hPa
Rain
since 9 am
mm
Dir
 
Spd
km/h
Gust
km/h
Spd
kts
Gust
kts
29/08:00am 5.5 2.6 4.6 94 0.4 W 9 15 5 8 1026.8 1026.9 1.0
29/07:30am 4.7 2.2 4.6 99 0.0 W 7 11 4 6 1026.6 1026.7 1.0
29/07:00am 4.0 1.5 4.0 100 0.0 W 6 11 3 6 1026.4 1026.5 1.0
29/06:30am 3.6 2.2 3.6 100 0.0 CALM 0 0 0 0 1026.1 1026.2 1.0
29/06:00am 4.1 1.7 4.1 100 0.0 SW 6 7 3 4 1025.9 1026.0 1.0
29/05:30am 4.7 2.4 4.7 100 0.0 WSW 6 9 3 5 1026.0 1026.1 1.0
29/05:00am 5.0 2.7 5.0 100 0.0 WSW 6 7 3 4 1025.9 1026.0 1.0
29/04:30am 5.1 2.9 5.1 100 0.0 SW 6 7 3 4 1025.7 1025.8 1.0
29/04:00am 5.3 3.5 5.3 100 0.0 SW 4 7 2 4 1025.8 1025.9 1.0
29/03:30am 5.7 3.4 5.7 100 0.0 SW 7 7 4 4 1025.7 1025.8 1.0
29/03:00am 5.9 3.6 5.9 100 0.0 SSW 7 11 4 6 1025.8 1025.9 0.8
29/02:30am 5.9 3.2 5.8 99 0.0 SSW 9 13 5 7 1026.0 1026.1 0.8
29/02:00am 5.6 2.7 4.4 92 0.5 WSW 9 13 5 7 1026.1 1026.2 0.2
29/01:30am 5.8 2.1 2.6 80 1.3 WSW 11 17 6 9 1026.1 1026.2 0.2
29/01:00am 5.5 2.5 1.8 77 1.5 W 7 11 4 6 1026.4 1026.5 0.2
29/12:30am 5.5 2.1 1.6 76 1.6 W 9 13 5 7 1026.3 1026.4 0.2
29/12:00am 5.6 2.5 1.5 75 1.6 WSW 7 13 4 7 1026.2 1026.3 0.2
 
Date/Time
EST
Temp
°C
App
Temp
°C
Dew
Point
Rel
Hum
%
Delta-T
°C
Wind Press
QNH
hPa
Press
MSL
hPa
Rain
since 9 am
mm
Dir
 
Spd
km/h
Gust
km/h
Spd
kts
Gust
kts
28/11:30pm 6.0 2.5 1.5 73 1.8 W 9 13 5 7 1026.2 1026.3 0.2
28/11:00pm 7.1 3.0 2.2 71 2.0 W 13 20 7 11 1026.4 1026.5 0.2
28/10:30pm 7.9 4.3 2.8 70 2.2 WSW 11 19 6 10 1026.5 1026.6 0.2
28/10:00pm 8.3 4.3 2.8 68 2.3 SW 13 19 7 10 1026.6 1026.7 0.2
28/09:30pm 8.4 5.7 3.5 71 2.1 SW 7 11 4 6 1026.6 1026.7 0.2
28/09:00pm 8.6 5.4 3.0 68 2.4 SW 9 15 5 8 1026.4 1026.5 0.2
28/08:30pm 8.2 5.1 3.7 73 1.9 WSW 9 13 5 7 1026.2 1026.3 0.2
28/08:00pm 9.0 5.2 4.0 71 2.2 SW 13 20 7 11 1026.0 1026.1 0.2
28/07:30pm 9.1 5.8 4.5 73 2.0 SW 11 15 6 8 1025.9 1026.0 0.2
28/07:00pm 9.0 5.3 4.6 74 1.9 SW 13 20 7 11 1025.9 1026.0 0.2
28/06:30pm 9.4 4.9 4.0 69 2.4 SW 17 24 9 13 1025.5 1025.6 0.2
28/06:00pm 9.4 5.2 4.0 69 2.4 SW 15 22 8 12 1025.2 1025.3 0.2
28/05:30pm 9.7 5.2 4.3 69 2.4 SW 17 26 9 14 1025.0 1025.1 0.2
28/05:00pm 10.0 5.1 5.0 71 2.2 SW 20 30 11 16 1024.8 1024.9 0.2
28/04:30pm 10.9 6.2 5.9 71 2.3 SSW 20 33 11 18 1024.4 1024.5 0.2
28/04:00pm 11.7 7.1 6.4 70 2.5 SW 20 28 11 15 1024.4 1024.5 0.2
28/03:30pm 12.6 8.4 8.1 74 2.2 SSW 20 30 11 16 1024.3 1024.4 0.2
28/03:00pm 12.4 9.3 8.7 78 1.8 SSW 15 24 8 13 1024.4 1024.5 0.2
28/02:30pm 12.9 9.2 9.4 79 1.8 SW 19 28 10 15 1024.3 1024.4 0.2
28/02:00pm 12.2 8.6 8.3 77 1.9 SW 17 28 9 15 1024.3 1024.4 0.2
28/01:30pm 12.3 9.0 8.0 75 2.1 SW 15 28 8 15 1024.4 1024.5 0.2
28/01:00pm 11.4 7.3 7.9 79 1.7 SW 19 26 10 14 1024.8 1024.9 0.2
28/12:30pm 12.0 9.1 8.1 77 1.9 SW 13 19 7 10 1025.1 1025.2 0.2
28/12:00pm 10.9 8.7 9.3 90 0.8 SSW 11 17 6 9 1025.6 1025.7 0.2
28/11:30am 10.8 7.9 9.7 93 0.6 SW 15 24 8 13 1025.9 1026.0 0.2
28/11:00am 10.2 6.8 9.3 94 0.4 SW 17 24 9 13 1026.1 1026.2 0.2
28/10:30am 10.7 7.9 10.1 96 0.3 SW 15 22 8 12 1025.9 1026.0 0.2
28/10:00am 9.8 7.3 9.8 100 0.0 WSW 13 17 7 9 1025.9 1026.0 0.2
28/09:30am 9.0 6.7 9.0 100 0.0 WSW 11 19 6 10 1025.9 1026.0 0.2
28/09:00am 8.6 5.4 8.6 100 0.0 SW 15 26 8 14 1026.0 1026.1 18.0
28/08:30am 9.2 7.9 9.2 100 0.0 WNW 6 9 3 5 1025.7 1025.8 17.8
28/08:00am 8.2 6.5 8.2 100 0.0 WSW 7 13 4 7 1025.4 1025.5 17.8
28/07:30am 7.4 4.7 7.4 100 0.0 WSW 11 17 6 9 1025.2 1025.3 17.8
28/07:00am 7.0 4.2 7.0 100 0.0 W 11 17 6 9 1024.9 1025.0 17.8
28/06:30am 7.3 5.0 7.3 100 0.0 W 9 13 5 7 1024.6 1024.7 17.8
28/06:00am 7.1 4.7 7.1 100 0.0 WSW 9 15 5 8 1024.4 1024.5 17.8
28/05:30am 7.6 5.0 7.6 100 0.0 W 11 15 6 8 1024.1 1024.2 17.8
28/05:00am 7.8 5.6 7.8 100 0.0 W 9 13 5 7 1023.9 1024.0 17.8
28/04:30am 7.7 5.5 7.7 100 0.0 W 9 13 5 7 1023.7 1023.8 17.8
28/04:00am 7.8 6.0 7.8 100 0.0 WSW 7 9 4 5 1023.7 1023.8 17.8
28/03:30am 7.9 6.1 7.9 100 0.0 SW 7 9 4 5 1023.7 1023.8 17.8
28/03:00am 7.9 6.3 7.9 100 0.0 WSW 6 7 3 4 1023.8 1023.9 17.8
28/02:30am 8.0 6.2 8.0 100 0.0 WSW 7 9 4 5 1023.9 1024.0 17.8
28/02:00am 8.1 6.3 8.1 100 0.0 SW 7 9 4 5 1023.9 1024.0 17.8
28/01:30am 8.3 6.6 8.3 100 0.0 SW 7 9 4 5 1023.9 1024.0 17.8
28/01:00am 8.8 6.8 8.7 99 0.0 SW 9 13 5 7 1023.7 1023.8 17.8
28/12:30am 9.2 6.9 9.1 99 0.0 SW 11 19 6 10 1023.6 1023.7 17.8
28/12:00am 9.8 7.3 9.7 99 0.0 SSW 13 19 7 10 1023.4 1023.5 17.8
 
Date/Time
EST
Temp
°C
App
Temp
°C
Dew
Point
Rel
Hum
%
Delta-T
°C
Wind Press
QNH
hPa
Press
MSL
hPa
Rain
since 9 am
mm
Dir
 
Spd
km/h
Gust
km/h
Spd
kts
Gust
kts
27/11:30pm 10.0 7.6 10.0 100 0.0 SSW 13 22 7 12 1023.4 1023.5 17.8
27/11:00pm 10.1 7.7 10.1 100 0.0 SSW 13 19 7 10 1023.2 1023.3 17.8
27/10:30pm 10.3 7.6 10.3 100 0.0 SSW 15 22 8 12 1022.9 1023.0 17.8
27/10:00pm 10.5 7.8 10.5 100 0.0 SSW 15 24 8 13 1022.7 1022.8 17.8
27/09:30pm 10.6 7.6 10.6 100 0.0 S 17 24 9 13 1022.5 1022.6 17.8
27/09:00pm 10.8 8.6 10.8 100 0.0 SSW 13 20 7 11 1022.4 1022.5 17.8
27/08:30pm 10.8 8.6 10.8 100 0.0 S 13 20 7 11 1022.1 1022.2 17.4
27/08:00pm 10.8 8.6 10.8 100 0.0 SSW 13 22 7 12 1021.8 1021.9 14.6
27/07:30pm 10.9 8.4 10.9 100 0.0 SW 15 20 8 11 1021.5 1021.6 14.0
27/07:00pm 10.8 8.6 10.8 100 0.0 SSW 13 20 7 11 1021.2 1021.3 14.0
27/06:30pm 11.0 8.5 11.0 100 0.0 SSW 15 22 8 12 1020.9 1021.0 14.0
27/06:00pm 11.1 8.6 11.1 100 0.0 SSW 15 22 8 12 1020.4 1020.5 13.4
27/05:30pm 11.1 8.2 11.1 100 0.0 SSW 17 32 9 17 1020.1 1020.2 13.0
27/05:00pm 11.1 8.2 11.1 100 0.0 SW 17 28 9 15 1019.7 1019.8 12.2
27/04:30pm 11.0 8.5 11.0 100 0.0 SW 15 24 8 13 1019.6 1019.7 11.4
27/04:00pm 11.0 8.5 11.0 100 0.0 SW 15 24 8 13 1019.5 1019.6 11.4
27/03:30pm 10.9 8.7 10.9 100 0.0 WSW 13 19 7 10 1019.6 1019.7 11.0
27/03:00pm 10.7 9.2 10.7 100 0.0 SW 9 17 5 9 1019.7 1019.8 10.6
27/02:30pm 10.6 8.7 10.6 100 0.0 SW 11 17 6 9 1019.8 1019.9 9.4
27/02:00pm 10.7 9.2 10.7 100 0.0 SW 9 13 5 7 1019.9 1020.0 8.0
27/01:30pm 10.6 9.1 10.6 100 0.0 SW 9 15 5 8 1020.2 1020.3 7.0
27/01:00pm 10.4 9.2 10.4 100 0.0 SW 7 11 4 6 1020.4 1020.5 5.6
27/12:30pm 10.2 9.0 10.2 100 0.0 WSW 7 13 4 7 1020.7 1020.8 4.2
27/12:00pm 10.2 9.2 10.2 100 0.0 WSW 6 11 3 6 1021.0 1021.1 2.6
27/11:30am 10.0 9.3 10.0 100 0.0 WSW 4 7 2 4 1021.2 1021.3 2.2
27/11:00am 9.9 8.8 9.9 100 0.0 SW 6 7 3 4 1021.4 1021.5 1.6
27/10:30am 9.8 8.5 9.8 100 0.0 WSW 7 11 4 6 1021.4 1021.5 1.4
27/10:00am 9.9 8.6 9.9 100 0.0 W 7 11 4 6 1021.4 1021.5 0.6
27/09:30am 9.9 8.2 9.9 100 0.0 SSW 9 13 5 7 1021.6 1021.7 0.2
27/09:00am 9.9 8.8 9.9 100 0.0 W 6 9 3 5 1021.8 1021.9 0.8
27/08:30am 9.7 8.3 9.7 100 0.0 W 7 11 4 6 1021.7 1021.8 0.8
27/08:00am 9.6 8.8 9.6 100 0.0 SSW 4 9 2 5 1021.4 1021.5 0.8
27/07:30am 9.5 8.1 9.5 100 0.0 SW 7 9 4 5 1021.1 1021.2 0.6
27/07:00am 9.7 9.7 9.7 100 0.0 CALM 0 0 0 0 1021.3 1021.4 0.0
27/06:30am 9.6 8.4 9.6 100 0.0 NNW 6 9 3 5 1020.9 1021.0 0.0
27/06:00am 9.5 9.4 9.4 99 0.0 CALM 0 0 0 0 1020.4 1020.5 0.0
27/05:30am 9.7 8.9 9.6 99 0.1 NNW 4 7 2 4 1020.5 1020.6 0.0
27/05:00am 10.0 9.8 8.9 93 0.5 CALM 0 7 0 4 1020.5 1020.6 0.0
27/04:30am 10.0 9.7 8.6 91 0.7 CALM 0 0 0 0 1020.3 1020.4 0.0
27/04:00am 10.1 9.8 8.7 91 0.7 CALM 0 0 0 0 1020.6 1020.7 0.0
27/03:30am 10.3 9.8 7.7 84 1.3 CALM 0 0 0 0 1020.7 1020.8 0.0
27/03:00am 10.2 9.8 8.1 87 1.0 CALM 0 0 0 0 1021.1 1021.2 0.0
27/02:30am 10.4 10.0 8.2 86 1.1 CALM 0 0 0 0 1021.2 1021.3 0.0
27/02:00am 10.3 9.7 7.5 83 1.3 CALM 0 0 0 0 1021.5 1021.6 0.0
27/01:30am 10.4 9.4 7.3 81 1.5 W 2 6 1 3 1021.8 1021.9 0.0
27/01:00am 10.7 10.0 6.8 77 1.8 CALM 0 0 0 0 1022.1 1022.2 0.0
27/12:30am 10.6 9.9 6.9 78 1.8 CALM 0 0 0 0 1022.2 1022.3 0.0
27/12:00am 10.8 10.0 6.7 76 1.9 CALM 0 0 0 0 1022.3 1022.4 0.0
 
Date/Time
EST
Temp
°C
App
Temp
°C
Dew
Point
Rel
Hum
%
Delta-T
°C
Wind Press
QNH
hPa
Press
MSL
hPa
Rain
since 9 am
mm
Dir
 
Spd
km/h
Gust
km/h
Spd
kts
Gust
kts
26/11:30pm 11.1 10.3 6.6 74 2.1 CALM 0 0 0 0 1022.5 1022.6 0.0
26/11:00pm 11.0 10.2 6.7 75 2.0 CALM 0 0 0 0 1022.8 1022.9 0.0
26/10:30pm 11.4 10.3 6.7 73 2.2 W 2 7 1 4 1023.2 1023.3 0.0
26/10:00pm 11.8 10.2 6.5 70 2.5 W 4 7 2 4 1023.3 1023.4 0.0
26/09:30pm 12.1 9.9 6.4 68 2.7 W 7 9 4 5 1023.3 1023.4 0.0
26/09:00pm 12.3 10.3 6.1 66 2.9 WSW 6 7 3 4 1023.2 1023.3 0.0
26/08:30pm 12.7 11.9 6.3 65 3.0 CALM 0 2 0 1 1023.1 1023.2 0.0
26/08:00pm 12.8 10.7 5.9 63 3.2 WSW 6 7 3 4 1023.1 1023.2 0.0
26/07:30pm 13.1 12.1 5.8 61 3.4 CALM 0 0 0 0 1023.0 1023.1 0.0
26/07:00pm 13.2 12.2 5.6 60 3.6 CALM 0 0 0 0 1023.0 1023.1 0.0
26/06:30pm 13.4 11.7 5.8 60 3.6 SSW 4 7 2 4 1022.8 1022.9 0.0
26/06:00pm 13.7 11.4 5.8 59 3.7 S 7 11 4 6 1022.6 1022.7 0.0
26/05:30pm 14.2 11.7 6.6 60 3.7 SSW 9 13 5 7 1022.6 1022.7 0.0
26/05:00pm 14.7 12.5 6.3 57 4.0 SW 7 11 4 6 1022.6 1022.7 0.0
26/04:30pm 15.4 13.5 4.8 49 5.0 S 4 9 2 5 1022.4 1022.5 0.0
26/04:00pm 15.6 14.1 3.1 43 5.7 CALM 0 0 0 0 1022.5 1022.6 0.0
26/03:30pm 15.5 13.6 4.8 49 5.0 S 4 7 2 4 1022.6 1022.7 0.0
26/03:00pm 16.5 14.9 6.3 51 5.0 S 4 7 2 4 1022.6 1022.7 0.0
26/02:30pm 15.2 14.2 5.4 52 4.7 CALM 0 6 0 3 1022.9 1023.0 0.0
26/02:00pm 15.0 13.1 6.8 58 4.0 SSE 6 9 3 5 1022.9 1023.0 0.0
26/01:30pm 14.7 13.5 6.5 58 4.0 S 2 9 1 5 1023.2 1023.3 0.0
26/01:00pm 14.1 12.1 6.2 59 3.8 S 6 9 3 5 1023.7 1023.8 0.0
26/12:30pm 13.3 11.8 6.6 64 3.2 S 4 9 2 5 1024.3 1024.4 0.0
26/12:00pm 13.1 11.6 6.9 66 3.0 SE 4 9 2 5 1024.9 1025.0 0.0
26/11:30am 13.0 11.5 6.8 66 3.0 NE 4 9 2 5 1025.5 1025.6 0.0
26/11:00am 12.1 10.8 6.2 67 2.8 NE 2 7 1 4 1025.7 1025.8 0.0
26/10:30am 11.8 10.6 6.3 69 2.6 NNW 2 9 1 5 1025.9 1026.0 0.0
26/10:00am 11.2 10.2 7.3 77 1.9 NE 2 6 1 3 1026.1 1026.2 0.0
26/09:30am 10.5 9.6 7.6 82 1.4 ENE 2 6 1 3 1026.0 1026.1 0.0
26/09:00am 9.8 8.0 7.1 83 1.3 NNW 6 7 3 4 1026.0 1026.1 0.0
26/08:30am 9.1 7.9 8.2 94 0.4 NW 4 7 2 4 1026.1 1026.2 0.0

Other Formats:

Comma delimited format used in spreadsheet applications
http://www.bom.gov.au/fwo/IDV60801/IDV60801.95874.axf

JavaScript Object Notation format (JSON) in row-major order
http://www.bom.gov.au/fwo/IDV60801/IDV60801.95874.json